ENSD/SDN METAR and TAF weather

Enter ICAO airport designator
Station Type Date Time Source
ENSD METAR 2022/01/27 21:50 UTC NOAA

ENSD 272150Z 30013G24KT 230V340 9999 -RASN FEW003 SCT016 VV029 02/M01 Q1015 RMK WIND 1138FT 30012KT


Station Type Date Time Source
ENSD Decoded METAR 2022/01/27 21:50 UTC NOAA

Sandane / Anda, Norway (ENSD) 61-50N 006-07E 60M
Jan 27, 2022 - 04:50 PM EST / 2022.01.27 2150 UTC
Wind: from the WNW (300 degrees) at 15 MPH (13 KT) gusting to 28 MPH (24 KT) (direction variable):0
Visibility: greater than 7 mile(s):0
Sky conditions: obscured
Weather: light rain, snow
Temperature: 35 F (2 C)
Windchill: 24 F (-4 C):1
Dew Point: 30 F (-1 C)
Relative Humidity: 80%
Pressure (altimeter): 29.97 in. Hg (1015 hPa)
ob: ENSD 272150Z 30013G24KT 230V340 9999 -RASN FEW003 SCT016 VV029 02/M01 Q1015 RMK WIND 1138FT 30012KT
cycle: 22

Station Type Date Time Source
ENSD TAF UTC NOAA

Error!

Example: see airport list